Time;durP1;ratioP1;P1;durP2;ratioP2;P2;SDS_P1;SDS_P2;PMS_P1;PMS_P2;Temp;Humidity;BMP_temperature;BMP_pressure;BME280_temperature;BME280_humidity;BME280_pressure;Samples;Min_cycle;Max_cycle;Signal;HPM_P1;HPM_P2
2022/09/18 00:01:12;;;;;;;1.90;1.00;;;;;;;;;;5053564;28;20036;-80
2022/09/18 00:03:41;;;;;;;2.85;1.35;;;;;;;;;;5052580;28;20500;-80
2022/09/18 00:06:11;;;;;;;2.70;1.00;;;;;;;;;;5053029;28;20024;-80
2022/09/18 00:08:42;;;;;;;1.27;0.70;;;;;;;;;;5054664;28;20024;-80
2022/09/18 00:11:08;;;;;;;3.60;1.60;;;;;;;;;;5053411;28;20021;-80
2022/09/18 00:13:34;;;;;;;1.60;1.30;;;;;;;;;;5052809;28;20083;-80
2022/09/18 00:15:59;;;;;;;3.03;0.98;;;;;;;;;;5052821;28;20024;-80
2022/09/18 00:18:24;;;;;;;1.52;1.15;;;;;;;;;;5052821;28;20021;-80
2022/09/18 00:20:50;;;;;;;3.03;0.90;;;;;;;;;;5052423;28;20066;-80
2022/09/18 00:23:15;;;;;;;6.03;0.95;;;;;;;;;;5053175;28;20017;-80
2022/09/18 00:25:40;;;;;;;1.20;0.90;;;;;;;;;;5054047;28;20020;-80
2022/09/18 00:28:06;;;;;;;1.63;1.10;;;;;;;;;;5052626;28;20286;-80
2022/09/18 00:30:31;;;;;;;2.45;1.40;;;;;;;;;;5052481;28;20027;-80
2022/09/18 00:32:56;;;;;;;2.90;1.00;;;;;;;;;;5052569;28;20009;-80
2022/09/18 00:35:22;;;;;;;1.83;1.23;;;;;;;;;;5052389;28;20334;-80
2022/09/18 00:37:47;;;;;;;1.00;1.00;;;;;;;;;;5052372;28;20243;-80
2022/09/18 00:40:13;;;;;;;1.83;0.97;;;;;;;;;;5052843;28;20021;-80
2022/09/18 00:42:39;;;;;;;2.75;1.30;;;;;;;;;;5053633;28;20247;-80
2022/09/18 00:45:05;;;;;;;1.55;1.15;;;;;;;;;;5052211;28;20025;-80
2022/09/18 00:47:40;;;;;;;3.92;1.15;;;;;;;;;;5052266;28;20028;-80
2022/09/18 00:50:06;;;;;;;2.50;1.75;;;;;;;;;;5052173;28;20103;-80
2022/09/18 00:52:45;;;;;;;1.88;1.33;;;;;;;;;;5053212;28;20100;-80
2022/09/18 00:55:11;;;;;;;2.00;1.38;;;;;;;;;;5052208;28;20083;-80
2022/09/18 00:57:40;;;;;;;2.70;1.65;;;;;;;;;;5053520;28;20017;-80
2022/09/18 01:00:11;;;;;;;2.10;1.45;;;;;;;;;;5052014;28;20373;-81
2022/09/18 01:02:36;;;;;;;2.25;1.77;;;;;;;;;;5053401;28;20013;-80
2022/09/18 01:05:02;;;;;;;2.88;1.52;;;;;;;;;;5051779;28;20397;-80
2022/09/18 01:07:34;;;;;;;1.85;1.63;;;;;;;;;;5052143;28;20048;-80
2022/09/18 01:10:20;;;;;;;2.60;1.70;;;;;;;;;;5051870;28;20082;-80
2022/09/18 01:12:48;;;;;;;3.83;2.22;;;;;;;;;;5052430;28;20036;-80
2022/09/18 01:15:36;;;;;;;7.03;1.60;;;;;;;;;;5052084;28;20140;-80
2022/09/18 01:18:10;;;;;;;1.27;1.10;;;;;;;;;;5051963;28;20009;-80
2022/09/18 01:20:41;;;;;;;1.67;1.33;;;;;;;;;;5051615;28;20082;-80
2022/09/18 01:23:22;;;;;;;4.47;1.90;;;;;;;;;;5051250;28;20108;-80
2022/09/18 01:25:50;;;;;;;8.85;1.30;;;;;;;;;;5051905;28;20481;-80
2022/09/18 01:28:19;;;;;;;1.25;1.10;;;;;;;;;;5051547;28;20024;-80
2022/09/18 01:30:46;;;;;;;21.38;1.45;;;;;;;;;;5051526;28;20020;-80
2022/09/18 01:33:18;;;;;;;2.05;1.48;;;;;;;;;;5051342;28;20486;-80
2022/09/18 01:35:48;;;;;;;4.38;1.27;;;;;;;;;;5051127;28;20558;-80
2022/09/18 01:38:43;;;;;;;1.60;1.20;;;;;;;;;;5051476;28;20020;-80
2022/09/18 01:41:14;;;;;;;2.67;1.40;;;;;;;;;;5046349;28;20107;-80
2022/09/18 01:43:40;;;;;;;3.50;1.75;;;;;;;;;;5051143;28;20041;-80
2022/09/18 01:46:11;;;;;;;2.08;1.33;;;;;;;;;;5051176;28;20024;-80
2022/09/18 01:48:39;;;;;;;1.75;1.58;;;;;;;;;;5051262;28;20028;-79
2022/09/18 01:51:08;;;;;;;5.10;1.27;;;;;;;;;;5051455;28;20013;-80
2022/09/18 01:53:37;;;;;;;2.08;1.58;;;;;;;;;;5051146;28;20082;-80
2022/09/18 01:56:18;;;;;;;3.90;1.92;;;;;;;;;;5051174;28;20017;-80
2022/09/18 01:58:44;;;;;;;7.07;1.45;;;;;;;;;;5051038;28;20438;-80
2022/09/18 02:01:12;;;;;;;5.80;1.52;;;;;;;;;;5051015;28;20040;-80
2022/09/18 02:03:44;;;;;;;4.22;1.20;;;;;;;;;;5050778;28;20049;-80
2022/09/18 02:06:14;;;;;;;2.35;1.20;;;;;;;;;;5051090;28;20591;-80
2022/09/18 02:08:47;;;;;;;2.25;1.52;;;;;;;;;;5051031;28;20021;-80
2022/09/18 02:11:14;;;;;;;1.52;1.10;;;;;;;;;;5050654;28;20013;-80
2022/09/18 02:13:45;;;;;;;1.33;0.93;;;;;;;;;;5050908;28;20033;-80
2022/09/18 02:16:13;;;;;;;2.05;1.13;;;;;;;;;;5050813;28;20018;-79
2022/09/18 02:18:41;;;;;;;1.55;1.25;;;;;;;;;;5050800;28;20025;-80
2022/09/18 02:21:10;;;;;;;1.83;1.27;;;;;;;;;;5052471;28;20040;-80
2022/09/18 02:23:36;;;;;;;6.35;1.10;;;;;;;;;;5050641;28;20375;-80
2022/09/18 02:26:06;;;;;;;2.80;1.85;;;;;;;;;;5050788;28;20473;-80
2022/09/18 02:28:32;;;;;;;1.58;1.00;;;;;;;;;;5052036;28;20061;-80
2022/09/18 02:30:57;;;;;;;2.25;0.90;;;;;;;;;;5050698;28;20542;-80
2022/09/18 02:33:26;;;;;;;5.68;1.10;;;;;;;;;;5051937;28;20017;-79
2022/09/18 02:35:57;;;;;;;5.13;1.77;;;;;;;;;;5050677;28;20028;-80
2022/09/18 02:38:38;;;;;;;1.00;1.00;;;;;;;;;;5050691;28;20464;-80
2022/09/18 02:41:30;;;;;;;1.52;1.27;;;;;;;;;;5051041;28;20378;-82
2022/09/18 02:44:01;;;;;;;0.80;0.80;;;;;;;;;;5049400;28;20090;-81
2022/09/18 02:46:30;;;;;;;1.33;1.00;;;;;;;;;;5052032;28;20021;-79
2022/09/18 02:49:03;;;;;;;2.05;1.65;;;;;;;;;;5055875;28;20017;-80
2022/09/18 02:51:30;;;;;;;1.15;0.98;;;;;;;;;;5054504;28;20021;-82
2022/09/18 02:54:02;;;;;;;0.73;0.70;;;;;;;;;;5054678;28;20411;-81
2022/09/18 02:56:27;;;;;;;1.67;0.85;;;;;;;;;;5054488;28;20366;-81
2022/09/18 02:59:01;;;;;;;0.70;0.47;;;;;;;;;;5054409;28;20112;-82
2022/09/18 03:01:27;;;;;;;1.05;0.75;;;;;;;;;;5054454;28;20551;-82
2022/09/18 03:03:52;;;;;;;0.70;0.70;;;;;;;;;;5054139;28;20159;-82
2022/09/18 03:06:18;;;;;;;2.13;0.68;;;;;;;;;;5054515;28;20017;-81
2022/09/18 03:08:43;;;;;;;4.07;0.57;;;;;;;;;;5054122;28;20075;-83
2022/09/18 03:11:08;;;;;;;0.88;0.70;;;;;;;;;;5055490;28;20074;-82
2022/09/18 03:13:34;;;;;;;0.50;0.50;;;;;;;;;;5055511;28;20017;-82
2022/09/18 03:15:59;;;;;;;0.77;0.68;;;;;;;;;;5054288;28;20017;-83
2022/09/18 03:18:24;;;;;;;0.50;0.50;;;;;;;;;;5054371;28;20017;-83
2022/09/18 03:20:50;;;;;;;6.07;0.55;;;;;;;;;;5054277;28;20623;-83
2022/09/18 03:23:15;;;;;;;0.57;0.57;;;;;;;;;;5054323;28;20020;-82
2022/09/18 03:25:40;;;;;;;1.00;0.80;;;;;;;;;;5054119;28;20480;-83
2022/09/18 03:28:06;;;;;;;2.23;1.13;;;;;;;;;;5055228;28;20461;-82
2022/09/18 03:30:31;;;;;;;1.45;1.35;;;;;;;;;;5055605;28;20282;-82
2022/09/18 03:32:56;;;;;;;2.13;0.93;;;;;;;;;;5055375;28;20025;-82
2022/09/18 03:35:22;;;;;;;1.42;1.20;;;;;;;;;;5054020;28;20112;-83
2022/09/18 03:37:47;;;;;;;0.60;0.60;;;;;;;;;;5055157;28;20079;-82
2022/09/18 03:40:14;;;;;;;7.70;1.40;;;;;;;;;;5055121;28;20014;-83
2022/09/18 03:42:41;;;;;;;0.60;0.60;;;;;;;;;;5053749;28;20024;-83
2022/09/18 03:45:07;;;;;;;0.50;0.50;;;;;;;;;;5053599;28;20031;-84
2022/09/18 03:47:32;;;;;;;0.40;0.40;;;;;;;;;;5053683;28;20112;-83
2022/09/18 03:49:57;;;;;;;0.60;0.60;;;;;;;;;;5054243;28;20056;-83
2022/09/18 03:52:23;;;;;;;0.77;0.40;;;;;;;;;;5053670;28;20766;-83
2022/09/18 03:54:48;;;;;;;5.53;0.63;;;;;;;;;;5054701;28;20306;-83
2022/09/18 03:57:13;;;;;;;0.75;0.55;;;;;;;;;;5053118;28;20272;-83
2022/09/18 03:59:38;;;;;;;2.57;0.40;;;;;;;;;;5053600;28;20017;-83
2022/09/18 04:02:04;;;;;;;0.30;0.30;;;;;;;;;;5054847;28;20766;-83
2022/09/18 04:04:29;;;;;;;0.20;0.20;;;;;;;;;;5053099;28;20346;-82
2022/09/18 04:06:54;;;;;;;0.30;0.30;;;;;;;;;;5053347;28;20268;-84
2022/09/18 04:09:20;;;;;;;1.03;0.93;;;;;;;;;;5054718;28;20021;-83
2022/09/18 04:11:45;;;;;;;0.73;0.50;;;;;;;;;;5053312;28;20677;-83
2022/09/18 04:14:10;;;;;;;0.33;0.33;;;;;;;;;;5053015;28;20498;-83
2022/09/18 04:16:36;;;;;;;0.43;0.43;;;;;;;;;;5053201;28;20258;-82
2022/09/18 04:19:01;;;;;;;0.30;0.30;;;;;;;;;;5054444;28;20048;-82
2022/09/18 04:21:26;;;;;;;0.40;0.40;;;;;;;;;;5053290;28;20044;-83
2022/09/18 04:23:52;;;;;;;1.80;0.50;;;;;;;;;;5053116;28;20275;-84
2022/09/18 04:26:17;;;;;;;0.20;0.20;;;;;;;;;;5053157;28;20251;-84
2022/09/18 04:28:42;;;;;;;0.33;0.30;;;;;;;;;;5052929;28;20017;-83
2022/09/18 04:31:08;;;;;;;0.30;0.30;;;;;;;;;;5053013;28;20887;-83
2022/09/18 04:33:34;;;;;;;3.92;0.43;;;;;;;;;;5052707;28;20264;-83
2022/09/18 04:35:59;;;;;;;0.28;0.28;;;;;;;;;;5053408;28;20070;-83
2022/09/18 04:38:28;;;;;;;0.93;0.57;;;;;;;;;;5052976;28;20021;-83
2022/09/18 04:40:57;;;;;;;0.30;0.30;;;;;;;;;;5052796;28;20017;-84
2022/09/18 04:43:23;;;;;;;0.30;0.30;;;;;;;;;;5052807;28;20493;-83
2022/09/18 04:45:48;;;;;;;0.40;0.40;;;;;;;;;;5052964;28;20024;-84
2022/09/18 04:48:14;;;;;;;0.20;0.20;;;;;;;;;;5052735;28;20021;-84
2022/09/18 04:50:39;;;;;;;0.43;0.43;;;;;;;;;;5052652;28;20028;-82
2022/09/18 04:53:04;;;;;;;8.40;0.43;;;;;;;;;;5053997;28;20021;-83
2022/09/18 04:55:30;;;;;;;0.40;0.40;;;;;;;;;;5052334;28;20323;-84
2022/09/18 04:57:55;;;;;;;0.20;0.20;;;;;;;;;;5053002;28;20021;-84
2022/09/18 05:00:20;;;;;;;0.10;0.10;;;;;;;;;;5052375;28;20480;-82
2022/09/18 05:02:46;;;;;;;0.90;0.30;;;;;;;;;;5052486;28;20025;-83
2022/09/18 05:05:11;;;;;;;0.27;0.27;;;;;;;;;;5052318;28;20053;-83
2022/09/18 05:07:36;;;;;;;0.20;0.20;;;;;;;;;;5052445;28;20703;-83
2022/09/18 05:10:02;;;;;;;0.20;0.20;;;;;;;;;;5051708;28;20022;-83
2022/09/18 05:12:27;;;;;;;0.38;0.28;;;;;;;;;;5053473;28;20746;-83
2022/09/18 05:14:53;;;;;;;0.47;0.22;;;;;;;;;;5052743;28;20021;-82
2022/09/18 05:17:18;;;;;;;0.10;0.10;;;;;;;;;;5052208;28;20078;-83
2022/09/18 05:19:43;;;;;;;0.30;0.30;;;;;;;;;;5052067;28;20251;-82
2022/09/18 05:22:09;;;;;;;0.40;0.40;;;;;;;;;;5053247;28;20025;-83
2022/09/18 05:24:34;;;;;;;0.20;0.20;;;;;;;;;;5051966;28;20770;-82
2022/09/18 05:26:59;;;;;;;0.70;0.28;;;;;;;;;;5053305;28;20263;-83
2022/09/18 05:29:24;;;;;;;0.20;0.20;;;;;;;;;;5052623;28;20022;-83
2022/09/18 05:31:50;;;;;;;1.17;1.00;;;;;;;;;;5052263;28;20094;-83
2022/09/18 05:34:15;;;;;;;0.37;0.37;;;;;;;;;;5053182;28;20024;-82
2022/09/18 05:36:40;;;;;;;0.10;0.10;;;;;;;;;;5051830;28;20288;-83
2022/09/18 05:39:06;;;;;;;0.20;0.20;;;;;;;;;;5051905;28;20016;-83
2022/09/18 05:41:31;;;;;;;0.22;0.22;;;;;;;;;;5052842;28;20066;-80
2022/09/18 05:43:56;;;;;;;0.30;0.30;;;;;;;;;;5051829;28;20078;-84
2022/09/18 05:46:21;;;;;;;0.20;0.20;;;;;;;;;;5053056;28;20697;-84
2022/09/18 05:48:47;;;;;;;0.30;0.30;;;;;;;;;;5051574;28;20309;-83
2022/09/18 05:51:13;;;;;;;0.20;0.20;;;;;;;;;;5051839;28;20266;-84
2022/09/18 05:53:38;;;;;;;0.20;0.20;;;;;;;;;;5051735;28;20485;-84
2022/09/18 05:56:03;;;;;;;9.65;0.50;;;;;;;;;;5051496;28;20351;-85
2022/09/18 05:58:29;;;;;;;0.30;0.30;;;;;;;;;;5050015;28;20056;-83
2022/09/18 06:01:00;;;;;;;2.93;0.53;;;;;;;;;;5032491;28;20375;-84
2022/09/18 06:03:25;;;;;;;0.20;0.20;;;;;;;;;;5043363;28;20253;-84
2022/09/18 06:05:51;;;;;;;0.20;0.20;;;;;;;;;;5037333;28;20074;-86
2022/09/18 06:08:16;;;;;;;0.20;0.20;;;;;;;;;;5051663;28;20494;-84
2022/09/18 06:10:42;;;;;;;0.10;0.10;;;;;;;;;;5039860;28;20056;-83
2022/09/18 06:13:12;;;;;;;0.33;0.33;;;;;;;;;;5031916;28;20032;-84
2022/09/18 06:15:38;;;;;;;0.25;0.22;;;;;;;;;;5031678;28;20259;-85
2022/09/18 06:18:04;;;;;;;0.30;0.30;;;;;;;;;;5031605;28;20014;-86
2022/09/18 06:20:29;;;;;;;0.28;0.28;;;;;;;;;;5033096;28;20112;-85
2022/09/18 06:22:59;;;;;;;0.30;0.30;;;;;;;;;;5048169;28;20048;-83
2022/09/18 06:25:24;;;;;;;0.70;0.70;;;;;;;;;;5052270;28;20307;-82
2022/09/18 06:27:57;;;;;;;0.20;0.20;;;;;;;;;;5036574;28;20037;-85
2022/09/18 06:30:22;;;;;;;0.30;0.30;;;;;;;;;;5035915;28;20045;-82
2022/09/18 06:32:47;;;;;;;0.30;0.30;;;;;;;;;;5072899;28;20020;-83
2022/09/18 06:35:13;;;;;;;7.45;1.48;;;;;;;;;;5075465;28;20486;-83
2022/09/18 06:37:38;;;;;;;0.17;0.17;;;;;;;;;;5075428;28;20499;-84
2022/09/18 06:40:04;;;;;;;0.20;0.20;;;;;;;;;;5075585;28;20104;-85
2022/09/18 06:42:29;;;;;;;0.28;0.28;;;;;;;;;;5075322;28;20320;-85
2022/09/18 06:44:54;;;;;;;0.28;0.28;;;;;;;;;;5075347;28;20040;-85
2022/09/18 06:47:19;;;;;;;0.47;0.20;;;;;;;;;;5075154;28;20059;-86
2022/09/18 06:49:45;;;;;;;4.10;0.32;;;;;;;;;;5066425;28;20263;-85
2022/09/18 06:52:10;;;;;;;0.20;0.20;;;;;;;;;;5069034;28;20013;-84
2022/09/18 06:54:35;;;;;;;0.47;0.40;;;;;;;;;;5056118;28;20753;-84
2022/09/18 06:57:01;;;;;;;0.30;0.30;;;;;;;;;;5055669;28;20263;-83
2022/09/18 06:59:26;;;;;;;0.38;0.20;;;;;;;;;;5050177;28;20025;-83
2022/09/18 07:01:51;;;;;;;0.45;0.25;;;;;;;;;;5054897;28;20473;-82
2022/09/18 07:04:16;;;;;;;0.10;0.10;;;;;;;;;;5054172;28;20562;-85
2022/09/18 07:06:42;;;;;;;0.10;0.10;;;;;;;;;;5038809;28;20367;-83
2022/09/18 07:09:08;;;;;;;0.20;0.20;;;;;;;;;;5034191;28;20080;-82
2022/09/18 07:11:35;;;;;;;8.27;1.05;;;;;;;;;;5046372;28;20025;-83
2022/09/18 07:14:00;;;;;;;0.28;0.28;;;;;;;;;;5054564;28;20040;-84
2022/09/18 07:16:25;;;;;;;0.30;0.30;;;;;;;;;;5054438;28;20013;-84
2022/09/18 07:18:52;;;;;;;0.30;0.30;;;;;;;;;;5054792;28;20024;-83
2022/09/18 07:21:17;;;;;;;0.30;0.30;;;;;;;;;;5054311;28;20259;-85
2022/09/18 07:23:42;;;;;;;0.40;0.40;;;;;;;;;;5038025;28;20388;-83
2022/09/18 07:26:08;;;;;;;0.17;0.17;;;;;;;;;;5055096;28;20264;-85
2022/09/18 07:28:33;;;;;;;0.13;0.13;;;;;;;;;;5052816;28;20260;-84
2022/09/18 07:31:03;;;;;;;0.17;0.17;;;;;;;;;;5034550;28;20031;-83
2022/09/18 07:33:28;;;;;;;0.22;0.22;;;;;;;;;;5033508;28;20112;-85
2022/09/18 07:35:58;;;;;;;0.30;0.30;;;;;;;;;;5036012;28;20122;-85
2022/09/18 07:38:23;;;;;;;0.57;0.57;;;;;;;;;;5054654;28;20035;-84
2022/09/18 07:40:49;;;;;;;0.20;0.20;;;;;;;;;;5054714;28;20029;-85
2022/09/18 07:43:14;;;;;;;0.15;0.15;;;;;;;;;;5047851;28;20106;-84
2022/09/18 07:45:39;;;;;;;0.80;0.30;;;;;;;;;;5039123;28;20480;-85
2022/09/18 07:48:05;;;;;;;0.30;0.30;;;;;;;;;;5051874;28;20495;-85
2022/09/18 07:50:31;;;;;;;0.20;0.20;;;;;;;;;;5046414;28;20268;-83
2022/09/18 07:52:57;;;;;;;0.32;0.32;;;;;;;;;;5052721;28;20025;-81
2022/09/18 07:55:23;;;;;;;0.22;0.22;;;;;;;;;;5052096;28;20115;-81
2022/09/18 07:57:59;;;;;;;0.22;0.22;;;;;;;;;;5051715;28;20025;-80
2022/09/18 08:00:25;;;;;;;0.30;0.30;;;;;;;;;;5032389;28;20022;-81
2022/09/18 08:02:59;;;;;;;0.47;0.47;;;;;;;;;;5033843;28;20014;-82
2022/09/18 08:05:28;;;;;;;0.40;0.40;;;;;;;;;;5031638;28;20057;-82
2022/09/18 08:07:53;;;;;;;0.20;0.20;;;;;;;;;;5031462;28;20013;-81
2022/09/18 08:10:18;;;;;;;0.20;0.20;;;;;;;;;;5032965;28;20036;-80
2022/09/18 08:12:43;;;;;;;0.30;0.30;;;;;;;;;;5033097;28;20020;-80
2022/09/18 08:15:09;;;;;;;0.60;0.60;;;;;;;;;;5033089;28;20738;-82
2022/09/18 08:17:42;;;;;;;0.43;0.43;;;;;;;;;;5032909;28;20252;-81
2022/09/18 08:20:08;;;;;;;0.40;0.40;;;;;;;;;;5034521;28;20036;-80
2022/09/18 08:22:36;;;;;;;0.22;0.22;;;;;;;;;;5033451;28;20018;-80
2022/09/18 08:25:02;;;;;;;0.32;0.32;;;;;;;;;;5032876;28;20033;-82
2022/09/18 08:27:27;;;;;;;0.80;0.35;;;;;;;;;;5032708;28;20021;-82
2022/09/18 08:29:52;;;;;;;0.10;0.10;;;;;;;;;;5032569;28;20026;-81
2022/09/18 08:32:18;;;;;;;0.32;0.30;;;;;;;;;;5032753;28;20014;-82
2022/09/18 08:34:43;;;;;;;0.45;0.30;;;;;;;;;;5032822;28;20029;-82
2022/09/18 08:37:09;;;;;;;0.27;0.27;;;;;;;;;;5033411;28;20116;-83
2022/09/18 08:39:34;;;;;;;1.93;0.70;;;;;;;;;;5032784;28;20755;-82
2022/09/18 08:42:14;;;;;;;1.25;0.45;;;;;;;;;;5032642;28;20302;-82
2022/09/18 08:44:47;;;;;;;0.10;0.10;;;;;;;;;;5030830;28;20068;-84
2022/09/18 08:47:12;;;;;;;0.20;0.20;;;;;;;;;;5049055;28;20539;-83
2022/09/18 08:49:45;;;;;;;0.20;0.20;;;;;;;;;;5037121;28;20057;-81
2022/09/18 08:52:21;;;;;;;0.20;0.20;;;;;;;;;;5032229;28;20027;-82
2022/09/18 08:54:56;;;;;;;0.20;0.20;;;;;;;;;;5033333;28;20025;-82
2022/09/18 08:57:40;;;;;;;0.30;0.30;;;;;;;;;;5032289;28;20024;-82
2022/09/18 09:00:15;;;;;;;0.20;0.20;;;;;;;;;;5032062;28;20029;-83
2022/09/18 09:02:44;;;;;;;0.30;0.30;;;;;;;;;;5033499;28;20024;-86
2022/09/18 09:05:11;;;;;;;0.40;0.40;;;;;;;;;;5032318;28;20495;-84
2022/09/18 09:07:41;;;;;;;0.30;0.30;;;;;;;;;;5041285;28;20021;-85
2022/09/18 09:10:23;;;;;;;0.25;0.25;;;;;;;;;;5053276;28;20078;-85
2022/09/18 09:12:57;;;;;;;0.20;0.20;;;;;;;;;;5054332;28;20013;-84
2022/09/18 09:15:45;;;;;;;0.22;0.22;;;;;;;;;;5051158;28;20035;-83
2022/09/18 09:18:15;;;;;;;0.25;0.25;;;;;;;;;;5053776;28;20416;-86
2022/09/18 09:20:47;;;;;;;0.20;0.20;;;;;;;;;;5052254;28;20073;-84
2022/09/18 09:23:33;;;;;;;0.40;0.40;;;;;;;;;;5052062;28;20066;-83
2022/09/18 09:25:58;;;;;;;0.20;0.20;;;;;;;;;;5053920;28;20108;-84
2022/09/18 09:28:27;;;;;;;1.45;0.30;;;;;;;;;;5041883;28;20061;-85
2022/09/18 09:30:55;;;;;;;0.20;0.20;;;;;;;;;;5032774;28;20385;-83
2022/09/18 09:33:24;;;;;;;0.20;0.20;;;;;;;;;;5032168;28;20033;-84
2022/09/18 09:36:01;;;;;;;0.22;0.22;;;;;;;;;;5032668;28;20080;-84
2022/09/18 09:38:27;;;;;;;;;;;;;;;;;;5033046;28;20056;-84
2022/09/18 09:40:53;;;;;;;0.20;0.20;;;;;;;;;;5044018;28;19905;-83
2022/09/18 09:43:39;;;;;;;0.10;0.10;;;;;;;;;;5033555;28;20017;-85
2022/09/18 09:46:09;;;;;;;1.02;0.35;;;;;;;;;;5032539;28;20521;-83
2022/09/18 09:48:40;;;;;;;0.28;0.25;;;;;;;;;;5045720;28;20077;-87
2022/09/18 09:51:14;;;;;;;0.40;0.40;;;;;;;;;;5044464;28;20021;-87
2022/09/18 09:53:40;;;;;;;0.35;0.20;;;;;;;;;;5072074;28;20092;-86
2022/09/18 09:56:15;;;;;;;0.30;0.30;;;;;;;;;;5071374;28;20063;-86
2022/09/18 09:58:49;;;;;;;0.30;0.30;;;;;;;;;;5061868;28;20021;-84
2022/09/18 10:01:30;;;;;;;0.70;0.40;;;;;;;;;;5032923;28;20012;-85
2022/09/18 10:04:06;;;;;;;0.40;0.38;;;;;;;;;;5031287;28;20060;-84
2022/09/18 10:06:33;;;;;;;0.30;0.30;;;;;;;;;;5039410;28;20044;-83
2022/09/18 10:09:06;;;;;;;0.30;0.30;;;;;;;;;;5031913;28;20030;-85
2022/09/18 10:11:32;;;;;;;1.00;0.40;;;;;;;;;;5051159;28;20017;-83
2022/09/18 10:13:58;;;;;;;0.30;0.30;;;;;;;;;;5051635;28;20473;-83
2022/09/18 10:16:25;;;;;;;0.20;0.20;;;;;;;;;;5052588;28;20017;-81
2022/09/18 10:18:51;;;;;;;0.82;0.55;;;;;;;;;;5050959;28;20013;-82
2022/09/18 10:21:19;;;;;;;12.80;0.93;;;;;;;;;;5038832;28;20029;-81
2022/09/18 10:23:55;;;;;;;0.55;0.55;;;;;;;;;;5038041;28;20760;-82
2022/09/18 10:26:40;;;;;;;0.20;0.20;;;;;;;;;;5032276;28;20028;-81
2022/09/18 10:29:11;;;;;;;0.30;0.30;;;;;;;;;;5030541;28;20030;-81
2022/09/18 10:31:48;;;;;;;0.35;0.30;;;;;;;;;;5031325;28;20025;-81
2022/09/18 10:34:44;;;;;;;0.13;0.13;;;;;;;;;;5030875;28;20028;-81
2022/09/18 10:37:28;;;;;;;1.48;0.38;;;;;;;;;;5017122;28;20067;-82
2022/09/18 10:39:58;;;;;;;0.20;0.20;;;;;;;;;;5030888;28;20014;-81
2022/09/18 10:42:25;;;;;;;0.15;0.15;;;;;;;;;;5032228;28;20021;-82
2022/09/18 10:44:52;;;;;;;0.50;0.40;;;;;;;;;;5032044;28;20083;-82
2022/09/18 10:47:25;;;;;;;0.30;0.30;;;;;;;;;;5030817;28;20017;-81
2022/09/18 10:49:56;;;;;;;0.20;0.20;;;;;;;;;;5030807;28;20022;-81
2022/09/18 10:52:33;;;;;;;0.40;0.40;;;;;;;;;;5031160;28;20454;-83
2022/09/18 10:55:08;;;;;;;3.97;0.43;;;;;;;;;;5030956;28;20095;-81
2022/09/18 10:57:34;;;;;;;0.22;0.22;;;;;;;;;;5030762;28;20105;-81
2022/09/18 11:00:01;;;;;;;0.30;0.30;;;;;;;;;;5030680;28;20029;-80
2022/09/18 11:02:38;;;;;;;0.30;0.30;;;;;;;;;;5030688;28;20026;-80
2022/09/18 11:05:03;;;;;;;1.05;0.30;;;;;;;;;;5030517;28;20057;-83
2022/09/18 11:07:29;;;;;;;0.30;0.30;;;;;;;;;;5032024;28;20037;-80
2022/09/18 11:09:54;;;;;;;6.03;0.50;;;;;;;;;;5035565;28;20021;-81
2022/09/18 11:12:21;;;;;;;0.53;0.30;;;;;;;;;;5035482;28;20040;-82
2022/09/18 11:14:57;;;;;;;0.30;0.30;;;;;;;;;;5034130;28;20260;-82
2022/09/18 11:17:28;;;;;;;0.30;0.30;;;;;;;;;;5034365;28;20496;-82
2022/09/18 11:19:54;;;;;;;0.10;0.10;;;;;;;;;;5035685;28;20024;-80
2022/09/18 11:22:32;;;;;;;0.20;0.20;;;;;;;;;;5034319;28;20022;-81
2022/09/18 11:25:07;;;;;;;0.10;0.10;;;;;;;;;;5034700;28;20029;-81
2022/09/18 11:27:43;;;;;;;0.20;0.20;;;;;;;;;;5034009;28;20477;-82
2022/09/18 11:30:15;;;;;;;1.38;0.55;;;;;;;;;;5035150;28;20017;-82
2022/09/18 11:32:43;;;;;;;0.30;0.30;;;;;;;;;;5033889;28;20025;-82
2022/09/18 11:35:14;;;;;;;4.57;0.40;;;;;;;;;;5033929;28;20025;-82
2022/09/18 11:37:45;;;;;;;1.42;0.30;;;;;;;;;;5033696;28;20553;-83
2022/09/18 11:40:30;;;;;;;0.40;0.40;;;;;;;;;;5034156;28;20028;-82
2022/09/18 11:42:56;;;;;;;0.40;0.40;;;;;;;;;;5033684;28;20022;-81
2022/09/18 11:45:40;;;;;;;0.75;0.45;;;;;;;;;;5033549;28;20033;-82
2022/09/18 11:48:32;;;;;;;0.40;0.40;;;;;;;;;;5033526;28;20160;-82
2022/09/18 11:51:08;;;;;;;0.28;0.28;;;;;;;;;;5025418;28;20477;-81
2022/09/18 11:53:56;;;;;;;0.40;0.40;;;;;;;;;;5033499;28;20020;-82
2022/09/18 11:56:32;;;;;;;0.43;0.40;;;;;;;;;;5033240;28;20051;-82
2022/09/18 11:59:00;;;;;;;0.50;0.50;;;;;;;;;;5033403;28;20022;-81
2022/09/18 12:01:29;;;;;;;0.63;0.43;;;;;;;;;;5034805;28;20021;-82
2022/09/18 12:04:03;;;;;;;0.40;0.40;;;;;;;;;;5032731;28;20052;-81
2022/09/18 12:06:38;;;;;;;0.40;0.40;;;;;;;;;;5033437;28;20032;-82
2022/09/18 12:09:11;;;;;;;0.75;0.57;;;;;;;;;;5034741;28;20032;-81
2022/09/18 12:11:39;;;;;;;0.65;0.65;;;;;;;;;;5033134;28;20017;-81
2022/09/18 12:14:23;;;;;;;1.17;0.57;;;;;;;;;;5033067;28;20026;-82
2022/09/18 12:16:59;;;;;;;0.60;0.60;;;;;;;;;;5033315;28;20036;-82
2022/09/18 12:19:28;;;;;;;0.98;0.88;;;;;;;;;;5032863;28;20116;-81
2022/09/18 12:22:00;;;;;;;0.85;0.70;;;;;;;;;;5032929;28;20060;-82
2022/09/18 12:24:25;;;;;;;0.50;0.50;;;;;;;;;;5033141;28;20470;-82
2022/09/18 12:26:59;;;;;;;0.75;0.70;;;;;;;;;;5032885;28;20104;-81
2022/09/18 12:29:43;;;;;;;0.80;0.80;;;;;;;;;;5032789;28;20026;-82
2022/09/18 12:32:18;;;;;;;0.60;0.57;;;;;;;;;;5032837;28;20018;-81
2022/09/18 12:34:57;;;;;;;0.80;0.80;;;;;;;;;;5033608;28;20025;-82
2022/09/18 12:37:23;;;;;;;0.88;0.70;;;;;;;;;;5033027;28;20021;-82
2022/09/18 12:40:07;;;;;;;1.43;1.03;;;;;;;;;;5032715;28;20562;-82
2022/09/18 12:42:51;;;;;;;1.30;1.05;;;;;;;;;;5033140;28;20252;-81
2022/09/18 12:45:40;;;;;;;1.02;0.95;;;;;;;;;;5032445;28;20509;-81
2022/09/18 12:48:05;;;;;;;1.25;1.15;;;;;;;;;;5032642;28;20021;-81
2022/09/18 12:50:33;;;;;;;0.87;0.83;;;;;;;;;;5032383;28;20488;-81
2022/09/18 12:53:08;;;;;;;1.85;1.20;;;;;;;;;;5032389;28;20084;-81
2022/09/18 12:55:48;;;;;;;0.95;0.93;;;;;;;;;;5032255;28;20021;-80
2022/09/18 12:58:37;;;;;;;1.00;0.85;;;;;;;;;;5032349;28;20523;-81
2022/09/18 13:01:08;;;;;;;3.70;1.33;;;;;;;;;;5032722;28;20053;-82
2022/09/18 13:03:35;;;;;;;0.90;0.80;;;;;;;;;;5033218;28;20143;-80
2022/09/18 13:06:10;;;;;;;0.70;0.70;;;;;;;;;;5032297;28;20029;-81
2022/09/18 13:08:42;;;;;;;0.70;0.70;;;;;;;;;;5032125;28;20397;-80
2022/09/18 13:11:29;;;;;;;2.40;0.90;;;;;;;;;;5032033;28;20045;-82
2022/09/18 13:13:55;;;;;;;;;;;;;;;;;;5032329;28;20013;-81
2022/09/18 13:16:32;;;;;;;0.67;0.67;;;;;;;;;;5032019;28;19912;-81
2022/09/18 13:19:05;;;;;;;0.60;0.60;;;;;;;;;;5031957;28;20029;-80
2022/09/18 13:21:33;;;;;;;0.88;0.80;;;;;;;;;;5031793;28;20108;-81
2022/09/18 13:23:59;;;;;;;1.17;0.85;;;;;;;;;;5031591;28;20129;-82
2022/09/18 13:26:26;;;;;;;3.20;0.98;;;;;;;;;;5032213;28;20121;-81
2022/09/18 13:28:52;;;;;;;0.90;0.80;;;;;;;;;;5031671;28;20031;-81
2022/09/18 13:31:31;;;;;;;1.00;0.90;;;;;;;;;;5030882;28;20021;-81
2022/09/18 13:34:01;;;;;;;0.70;0.70;;;;;;;;;;5031832;28;20021;-81
2022/09/18 13:36:27;;;;;;;1.20;1.10;;;;;;;;;;5031525;28;20110;-82
2022/09/18 13:38:54;;;;;;;0.90;0.90;;;;;;;;;;5032007;28;20021;-82
2022/09/18 13:41:19;;;;;;;0.77;0.70;;;;;;;;;;5031509;28;20116;-82
2022/09/18 13:43:56;;;;;;;1.27;1.02;;;;;;;;;;5032719;28;20052;-82
2022/09/18 13:46:38;;;;;;;1.35;1.20;;;;;;;;;;5031380;28;20552;-79
2022/09/18 13:49:18;;;;;;;0.70;0.70;;;;;;;;;;5031913;28;20022;-81
2022/09/18 13:51:43;;;;;;;1.55;0.90;;;;;;;;;;5031783;28;20500;-80
2022/09/18 13:54:20;;;;;;;1.80;0.95;;;;;;;;;;5031404;28;20026;-80
2022/09/18 13:57:08;;;;;;;2.05;0.80;;;;;;;;;;5031251;28;20028;-81
2022/09/18 13:59:47;;;;;;;3.03;1.20;;;;;;;;;;5031178;28;20017;-81
2022/09/18 14:02:26;;;;;;;0.98;0.80;;;;;;;;;;5031811;28;20370;-82
2022/09/18 14:05:10;;;;;;;0.85;0.82;;;;;;;;;;5030767;28;20525;-82
2022/09/18 14:07:35;;;;;;;1.02;0.93;;;;;;;;;;5031172;28;20017;-82
2022/09/18 14:10:19;;;;;;;0.90;0.80;;;;;;;;;;5032534;28;20147;-82
2022/09/18 14:12:59;;;;;;;3.40;1.02;;;;;;;;;;5032648;28;20025;-81
2022/09/18 14:15:25;;;;;;;1.35;1.25;;;;;;;;;;5031088;28;20436;-80
2022/09/18 14:18:18;;;;;;;0.95;0.80;;;;;;;;;;5031225;28;20025;-82
2022/09/18 14:20:48;;;;;;;0.90;0.90;;;;;;;;;;5031205;28;20017;-82
2022/09/18 14:23:33;;;;;;;1.10;0.80;;;;;;;;;;5031013;28;20021;-81
2022/09/18 14:25:58;;;;;;;1.00;0.90;;;;;;;;;;5031293;28;20559;-81
2022/09/18 14:28:24;;;;;;;0.95;0.93;;;;;;;;;;5032139;28;20022;-81
2022/09/18 14:31:12;;;;;;;2.13;1.10;;;;;;;;;;5030962;28;20053;-81
2022/09/18 14:33:38;;;;;;;2.03;0.88;;;;;;;;;;5032228;28;20014;-80
2022/09/18 14:36:04;;;;;;;0.70;0.70;;;;;;;;;;5031078;28;20028;-81
2022/09/18 14:38:34;;;;;;;0.60;0.60;;;;;;;;;;5030998;28;20025;-81
2022/09/18 14:41:14;;;;;;;5.43;0.80;;;;;;;;;;5031552;28;20022;-82
2022/09/18 14:43:46;;;;;;;0.55;0.55;;;;;;;;;;5034645;28;20029;-81
2022/09/18 14:46:18;;;;;;;0.52;0.52;;;;;;;;;;5034752;28;20124;-81
2022/09/18 14:48:43;;;;;;;1.08;0.82;;;;;;;;;;5035986;28;20021;-82
2022/09/18 14:51:16;;;;;;;0.70;0.60;;;;;;;;;;5034688;28;20027;-81
2022/09/18 14:53:43;;;;;;;0.73;0.73;;;;;;;;;;5034598;28;20260;-81
2022/09/18 14:56:10;;;;;;;0.55;0.55;;;;;;;;;;5034521;28;20163;-81
2022/09/18 14:58:36;;;;;;;0.50;0.50;;;;;;;;;;5034554;28;20013;-81